createdAt,value
2023-02-07T00:02:05.178Z,-5.32
2023-02-07T00:04:31.878Z,-5.34
2023-02-07T00:06:58.411Z,-5.36
2023-02-07T00:09:24.894Z,-5.42
2023-02-07T00:11:51.461Z,-5.45
2023-02-07T00:14:17.995Z,-5.70
2023-02-07T00:16:44.717Z,-5.50
2023-02-07T00:19:11.420Z,-5.50
2023-02-07T00:21:38.081Z,-5.66
2023-02-07T00:24:04.997Z,-5.61
2023-02-07T00:26:31.688Z,-5.56
2023-02-07T00:28:58.209Z,-5.46
2023-02-07T00:31:30.228Z,-5.65
2023-02-07T00:34:00.586Z,-5.52
2023-02-07T00:36:29.234Z,-5.43
2023-02-07T00:39:00.223Z,-5.37
2023-02-07T00:41:27.919Z,-5.40
2023-02-07T00:43:54.816Z,-5.32
2023-02-07T00:46:23.334Z,-5.36
2023-02-07T00:48:50.835Z,-5.48
2023-02-07T00:51:17.328Z,-5.45
2023-02-07T00:53:45.150Z,-5.48
2023-02-07T00:56:12.357Z,-5.46
2023-02-07T00:58:38.945Z,-5.46
2023-02-07T01:01:06.837Z,-5.73
2023-02-07T01:03:33.605Z,-5.81
2023-02-07T01:06:00.259Z,-5.81
2023-02-07T01:08:26.832Z,-5.76
2023-02-07T01:10:53.396Z,-5.95
2023-02-07T01:13:19.967Z,-5.89
2023-02-07T01:15:48.253Z,-5.86
2023-02-07T01:18:16.317Z,-5.53
2023-02-07T01:20:43.075Z,-5.54
2023-02-07T01:23:11.289Z,-5.55
2023-02-07T01:25:38.946Z,-5.65
2023-02-07T01:28:05.903Z,-5.51
2023-02-07T01:30:32.548Z,-5.68
2023-02-07T01:32:59.100Z,-5.56
2023-02-07T01:35:26.217Z,-5.67
2023-02-07T01:37:53.810Z,-5.74
2023-02-07T01:40:20.608Z,-5.77
2023-02-07T01:42:47.169Z,-5.80
2023-02-07T01:45:27.426Z,-5.86
2023-02-07T01:47:55.367Z,-5.87
2023-02-07T01:50:22.700Z,-5.76
2023-02-07T01:52:50.047Z,-5.84
2023-02-07T01:55:25.996Z,-6.02
2023-02-07T01:57:53.475Z,-6.05
2023-02-07T02:00:20.930Z,-5.94
2023-02-07T02:02:47.672Z,-6.01
2023-02-07T02:05:16.076Z,-6.06
2023-02-07T02:07:42.937Z,-6.06
2023-02-07T02:10:19.818Z,-6.11
2023-02-07T02:13:18.508Z,-5.98
2023-02-07T02:16:08.721Z,-6.13
2023-02-07T02:19:07.707Z,-6.17
2023-02-07T02:21:48.869Z,-6.13
2023-02-07T02:24:36.820Z,-6.22
2023-02-07T02:27:12.913Z,-6.24
2023-02-07T02:30:04.227Z,-6.30
2023-02-07T02:32:58.357Z,-6.35
2023-02-07T02:35:32.613Z,-6.38
2023-02-07T02:38:14.347Z,-6.35
2023-02-07T02:41:18.771Z,-6.35
2023-02-07T02:43:50.156Z,-6.40
2023-02-07T02:46:27.838Z,-6.43
2023-02-07T02:48:57.891Z,-6.56
2023-02-07T02:51:24.454Z,-6.50
2023-02-07T02:53:55.446Z,-6.59
2023-02-07T02:57:15.489Z,-6.55
2023-02-07T03:00:03.217Z,-6.61
2023-02-07T03:02:57.100Z,-6.68
2023-02-07T03:05:26.595Z,-6.75
2023-02-07T03:07:57.530Z,-6.75
2023-02-07T03:10:35.770Z,-6.81
2023-02-07T03:13:25.755Z,-6.89
2023-02-07T03:16:14.472Z,-6.89
2023-02-07T03:19:12.182Z,-6.83
2023-02-07T03:21:41.682Z,-6.88
2023-02-07T03:24:18.121Z,-6.98
2023-02-07T03:26:46.971Z,-6.84
2023-02-07T03:29:17.472Z,-6.80
2023-02-07T03:31:48.149Z,-6.85
2023-02-07T03:34:33.745Z,-6.76
2023-02-07T03:37:07.801Z,-6.74
2023-02-07T03:39:34.583Z,-6.87
2023-02-07T03:42:05.132Z,-6.68
2023-02-07T03:44:34.897Z,-6.71
2023-02-07T03:47:02.425Z,-6.74
2023-02-07T03:49:28.970Z,-6.86
2023-02-07T03:51:55.592Z,-6.86
2023-02-07T03:54:22.181Z,-6.92
2023-02-07T03:56:48.682Z,-6.85
2023-02-07T03:59:15.267Z,-6.88
2023-02-07T04:01:42.704Z,-6.88
2023-02-07T04:04:10.333Z,-7.00
2023-02-07T04:06:37.496Z,-6.99
2023-02-07T04:09:04.409Z,-6.94
2023-02-07T04:11:30.940Z,-6.95
2023-02-07T04:13:57.644Z,-7.05
2023-02-07T04:16:25.772Z,-7.01
2023-02-07T04:18:52.371Z,-7.20
2023-02-07T04:21:18.921Z,-7.09
2023-02-07T04:23:45.779Z,-7.20
2023-02-07T04:26:12.296Z,-7.32
2023-02-07T04:28:38.947Z,-7.26
2023-02-07T04:31:05.484Z,-7.08
2023-02-07T04:33:32.356Z,-7.12
2023-02-07T04:36:01.652Z,-7.09
2023-02-07T04:38:29.297Z,-7.17
2023-02-07T04:41:00.645Z,-7.19
2023-02-07T04:43:27.287Z,-7.31
2023-02-07T04:45:53.804Z,-7.22
2023-02-07T04:48:20.758Z,-7.33
2023-02-07T04:50:47.318Z,-7.46
2023-02-07T04:53:14.365Z,-7.46
2023-02-07T04:55:41.016Z,-7.33
2023-02-07T04:58:08.173Z,-7.39
2023-02-07T05:00:35.096Z,-7.37
2023-02-07T05:03:01.685Z,-7.52
2023-02-07T05:05:28.248Z,-7.65
2023-02-07T05:07:54.778Z,-7.57
2023-02-07T05:10:21.344Z,-7.64
2023-02-07T05:12:47.934Z,-7.72
2023-02-07T05:15:14.527Z,-7.64
2023-02-07T05:17:41.270Z,-7.86
2023-02-07T05:20:08.683Z,-7.94
2023-02-07T05:22:35.302Z,-7.86
2023-02-07T05:25:02.294Z,-7.76
2023-02-07T05:27:28.852Z,-7.78
2023-02-07T05:29:55.437Z,-7.74
2023-02-07T05:32:40.768Z,-8.00
2023-02-07T05:35:07.615Z,-7.82
2023-02-07T05:37:34.904Z,-7.88
2023-02-07T05:40:02.760Z,-7.86
2023-02-07T05:42:29.363Z,-7.87
2023-02-07T05:44:55.973Z,-7.90
2023-02-07T05:47:22.529Z,-7.92
2023-02-07T05:49:49.036Z,-8.03
2023-02-07T05:52:15.633Z,-8.04
2023-02-07T05:54:42.154Z,-8.09
2023-02-07T05:57:08.988Z,-8.07
2023-02-07T05:59:35.499Z,-8.14
2023-02-07T06:02:02.102Z,-8.25
2023-02-07T06:04:28.588Z,-8.37
2023-02-07T06:06:55.148Z,-8.19
2023-02-07T06:09:22.517Z,-8.17
2023-02-07T06:11:49.118Z,-8.25
2023-02-07T06:14:15.716Z,-8.46
2023-02-07T06:16:42.402Z,-8.22
2023-02-07T06:19:11.282Z,-8.27
2023-02-07T06:21:46.383Z,-8.43
2023-02-07T06:24:15.332Z,-8.50
2023-02-07T06:26:43.090Z,-8.18
2023-02-07T06:29:09.772Z,-8.26
2023-02-07T06:31:36.703Z,-8.28
2023-02-07T06:34:03.407Z,-8.51
2023-02-07T06:36:30.392Z,-8.65
2023-02-07T06:38:57.599Z,-8.40
2023-02-07T06:41:24.164Z,-8.31
2023-02-07T06:43:51.228Z,-8.54
2023-02-07T06:46:17.881Z,-8.70
2023-02-07T06:48:44.591Z,-8.74
2023-02-07T06:51:11.414Z,-8.60
2023-02-07T06:53:37.918Z,-8.44
2023-02-07T06:56:04.751Z,-8.58
2023-02-07T06:58:31.393Z,-8.53
2023-02-07T07:00:57.980Z,-8.32
2023-02-07T07:03:28.534Z,-8.45
2023-02-07T07:05:56.656Z,-8.14
2023-02-07T07:08:24.846Z,-7.98
2023-02-07T07:10:51.537Z,-7.92
2023-02-07T07:13:18.172Z,-7.75
2023-02-07T07:15:45.207Z,-7.72
2023-02-07T07:18:11.848Z,-7.65
2023-02-07T07:20:38.413Z,-7.70
2023-02-07T07:23:05.184Z,-7.87
2023-02-07T07:25:31.815Z,-8.18
2023-02-07T07:27:59.066Z,-7.98
2023-02-07T07:30:25.709Z,-7.60
2023-02-07T07:32:52.291Z,-7.73
2023-02-07T07:35:19.665Z,-7.65
2023-02-07T07:37:46.273Z,-7.24
2023-02-07T07:40:12.853Z,-7.40
2023-02-07T07:42:39.748Z,-7.43
2023-02-07T07:45:29.108Z,-7.42
2023-02-07T07:47:55.874Z,-7.27
2023-02-07T07:50:22.650Z,-6.98
2023-02-07T07:52:49.174Z,-7.07
2023-02-07T07:55:15.758Z,-6.88
2023-02-07T07:57:42.298Z,-6.81
2023-02-07T08:00:09.426Z,-6.85
2023-02-07T08:02:43.167Z,-7.15
2023-02-07T08:05:12.560Z,-6.77
2023-02-07T08:07:40.032Z,-6.39
2023-02-07T08:10:06.690Z,-6.19
2023-02-07T08:12:33.707Z,-6.08
2023-02-07T08:15:00.283Z,-6.20
2023-02-07T08:17:26.914Z,-6.11
2023-02-07T08:19:53.422Z,-6.30
2023-02-07T08:22:20.015Z,-5.97
2023-02-07T08:24:46.540Z,-5.95
2023-02-07T08:27:13.075Z,-5.75
2023-02-07T08:29:39.651Z,-5.75
2023-02-07T08:32:06.318Z,-5.59
2023-02-07T08:34:37.422Z,-5.29
2023-02-07T08:37:09.030Z,-5.31
2023-02-07T08:39:36.317Z,-5.10
2023-02-07T08:42:05.437Z,-4.85
2023-02-07T08:44:32.350Z,-4.92
2023-02-07T08:47:01.027Z,-4.68
2023-02-07T08:49:27.567Z,-4.56
2023-02-07T08:51:54.146Z,-4.49
2023-02-07T08:54:20.639Z,-4.14
2023-02-07T08:56:47.159Z,-4.16
2023-02-07T08:59:13.994Z,-4.10
2023-02-07T09:01:40.792Z,-4.30
2023-02-07T09:04:07.272Z,-3.91
2023-02-07T09:06:33.787Z,-4.05
2023-02-07T09:09:00.372Z,-3.49
2023-02-07T09:11:27.099Z,-3.53
2023-02-07T09:13:53.705Z,-3.49
2023-02-07T09:16:20.261Z,-3.29
2023-02-07T09:18:46.912Z,-3.62
2023-02-07T09:21:13.433Z,-3.47
2023-02-07T09:23:40.406Z,-3.31
2023-02-07T09:26:09.001Z,-3.09
2023-02-07T09:28:36.039Z,-3.27
2023-02-07T09:31:11.818Z,-3.06
2023-02-07T09:33:39.042Z,-3.02
2023-02-07T09:36:06.263Z,-3.15
2023-02-07T09:38:32.841Z,-2.76
2023-02-07T09:41:00.033Z,-2.91
2023-02-07T09:44:00.790Z,-2.63
2023-02-07T09:46:53.623Z,-2.85
2023-02-07T09:49:35.596Z,-2.35
2023-02-07T09:52:05.211Z,-2.38
2023-02-07T09:54:44.341Z,-2.48
2023-02-07T09:57:19.391Z,-2.14
2023-02-07T09:59:53.433Z,-2.17
2023-02-07T10:02:46.042Z,-2.02
2023-02-07T10:05:19.403Z,-2.16
2023-02-07T10:07:47.545Z,-1.72
2023-02-07T10:10:23.072Z,-1.91
2023-02-07T10:13:08.424Z,-1.85
2023-02-07T10:15:57.233Z,-1.57
2023-02-07T10:18:47.807Z,-1.08
2023-02-07T10:22:03.865Z,-1.67
2023-02-07T10:25:06.197Z,-1.70
2023-02-07T10:27:42.369Z,-1.30
2023-02-07T10:30:17.013Z,-1.45
2023-02-07T10:32:46.927Z,-1.33
2023-02-07T10:35:29.472Z,-1.31
2023-02-07T10:37:59.444Z,-1.77
2023-02-07T10:40:40.917Z,-1.29
2023-02-07T10:43:22.939Z,-1.14
2023-02-07T10:45:54.356Z,-1.32
2023-02-07T10:48:28.312Z,-1.05
2023-02-07T10:50:56.468Z,-0.74
2023-02-07T10:53:53.708Z,-0.64
2023-02-07T10:56:24.450Z,-0.94
2023-02-07T10:58:51.069Z,-0.88
2023-02-07T11:01:20.861Z,-0.67
2023-02-07T11:03:48.276Z,-0.78
2023-02-07T11:06:24.158Z,-0.64
2023-02-07T11:08:50.942Z,-0.45
2023-02-07T11:11:31.791Z,-0.21
2023-02-07T11:14:04.577Z,-0.49
2023-02-07T11:33:17.144Z,-0.40
2023-02-07T11:36:01.989Z,-0.48
2023-02-07T11:38:36.230Z,-0.08
2023-02-07T11:41:06.694Z,0.02
2023-02-07T11:43:35.364Z,-0.21
2023-02-07T11:46:09.535Z,-0.19
2023-02-07T11:48:40.288Z,0.29
2023-02-07T11:51:10.416Z,-0.10
2023-02-07T11:53:45.591Z,0.07
2023-02-07T11:56:25.563Z,0.16
2023-02-07T11:58:53.961Z,0.13
2023-02-07T12:01:33.581Z,0.07
2023-02-07T12:04:15.262Z,-0.15
2023-02-07T12:06:54.155Z,0.13
2023-02-07T12:09:29.884Z,0.22
2023-02-07T12:12:00.533Z,0.21
2023-02-07T12:14:35.601Z,0.44
2023-02-07T12:17:09.896Z,0.32
2023-02-07T12:19:49.725Z,0.48
2023-02-07T12:22:24.721Z,-0.16
2023-02-07T12:25:01.842Z,0.26
2023-02-07T12:27:35.278Z,0.26
2023-02-07T12:30:23.586Z,0.48
2023-02-07T12:33:17.971Z,0.43
2023-02-07T12:36:06.469Z,0.06
2023-02-07T12:38:40.199Z,0.31
2023-02-07T12:41:27.887Z,0.20
2023-02-07T12:44:19.487Z,0.12
2023-02-07T12:46:47.029Z,0.29
2023-02-07T12:49:47.935Z,0.13
2023-02-07T12:53:02.114Z,0.22
2023-02-07T12:55:40.633Z,0.16
2023-02-07T12:58:36.690Z,0.24
2023-02-07T13:01:13.107Z,0.15
2023-02-07T13:03:55.656Z,0.45
2023-02-07T13:06:40.657Z,0.39
2023-02-07T13:09:16.675Z,0.90
2023-02-07T13:12:04.197Z,0.78
2023-02-07T13:14:38.992Z,0.52
2023-02-07T13:17:24.395Z,0.37
2023-02-07T13:20:16.041Z,0.37
2023-02-07T13:23:00.544Z,0.45
2023-02-07T13:25:35.466Z,0.51
2023-02-07T13:28:14.260Z,0.15
2023-02-07T13:30:41.571Z,0.22
2023-02-07T13:33:27.850Z,0.74
2023-02-07T13:35:58.594Z,0.48
2023-02-07T13:38:40.630Z,0.60
2023-02-07T13:41:16.210Z,0.50
2023-02-07T13:43:50.907Z,0.64
2023-02-07T13:46:42.749Z,0.55
2023-02-07T13:49:32.041Z,0.47
2023-02-07T13:52:11.945Z,0.52
2023-02-07T13:54:55.198Z,0.45
2023-02-07T13:57:57.294Z,0.46
2023-02-07T14:00:27.891Z,0.53
2023-02-07T14:02:57.900Z,0.27
2023-02-07T14:05:28.493Z,0.43
2023-02-07T14:08:24.748Z,0.43
2023-02-07T14:10:53.275Z,0.58
2023-02-07T14:13:25.885Z,0.67
2023-02-07T14:15:56.136Z,0.66
2023-02-07T14:18:39.064Z,0.67
2023-02-07T14:21:30.065Z,0.58
2023-02-07T14:24:02.698Z,0.43
2023-02-07T14:26:38.182Z,0.52
2023-02-07T14:29:22.763Z,0.95
2023-02-07T14:32:00.353Z,0.42
2023-02-07T14:34:32.386Z,0.65
2023-02-07T14:37:00.510Z,0.37
2023-02-07T14:39:33.212Z,0.34
2023-02-07T14:42:20.212Z,0.58
2023-02-07T14:44:49.875Z,0.41
2023-02-07T14:47:24.660Z,0.40
2023-02-07T14:49:55.936Z,0.00
2023-02-07T14:52:35.835Z,-0.05
2023-02-07T14:55:14.402Z,0.16
2023-02-07T14:58:12.739Z,0.15
2023-02-07T15:00:53.634Z,0.14
2023-02-07T15:03:21.441Z,0.17
2023-02-07T15:06:00.502Z,0.15
2023-02-07T15:08:30.263Z,0.33
2023-02-07T15:11:05.315Z,0.21
2023-02-07T15:13:45.669Z,0.25
2023-02-07T15:16:12.259Z,0.21
2023-02-07T15:18:42.976Z,-0.06
2023-02-07T15:21:22.697Z,-0.22
2023-02-07T15:23:55.759Z,-0.21
2023-02-07T15:26:22.437Z,-0.29
2023-02-07T15:28:57.649Z,-0.42
2023-02-07T15:31:24.322Z,-0.30
2023-02-07T15:33:55.442Z,-0.39
2023-02-07T15:36:40.552Z,-0.42
2023-02-07T15:39:23.841Z,-0.46
2023-02-07T15:41:53.211Z,-0.11
2023-02-07T15:44:24.542Z,-0.29
2023-02-07T15:47:06.821Z,-0.42
2023-02-07T15:49:40.777Z,-0.35
2023-02-07T15:52:35.137Z,-0.34
2023-02-07T15:55:04.986Z,-0.51
2023-02-07T15:57:40.480Z,-0.71
2023-02-07T16:00:19.119Z,-0.71
2023-02-07T16:02:55.548Z,-0.65
2023-02-07T16:05:26.900Z,-0.82
2023-02-07T16:07:54.459Z,-0.92
2023-02-07T16:10:23.972Z,-1.01
2023-02-07T16:12:53.344Z,-1.17
2023-02-07T16:15:30.429Z,-1.12
2023-02-07T16:17:56.960Z,-1.13
2023-02-07T16:20:25.120Z,-1.41
2023-02-07T16:22:52.164Z,-1.66
2023-02-07T16:25:21.885Z,-1.83
2023-02-07T16:27:51.782Z,-1.86
2023-02-07T16:30:25.364Z,-1.83
2023-02-07T16:32:51.903Z,-1.99
2023-02-07T16:35:23.177Z,-2.27
2023-02-07T16:37:50.189Z,-2.45
2023-02-07T16:40:17.767Z,-2.62
2023-02-07T16:42:44.750Z,-2.67
2023-02-07T16:45:26.626Z,-2.71
2023-02-07T16:47:54.043Z,-2.75
2023-02-07T16:50:23.386Z,-2.81
2023-02-07T16:52:51.305Z,-2.81
2023-02-07T16:55:19.561Z,-2.79
2023-02-07T16:57:47.628Z,-2.67
2023-02-07T17:00:17.894Z,-2.85
2023-02-07T17:02:44.484Z,-2.75
2023-02-07T17:05:11.316Z,-2.54
2023-02-07T17:07:37.933Z,-2.76
2023-02-07T17:10:12.454Z,-2.92
2023-02-07T17:12:39.022Z,-3.04
2023-02-07T17:15:05.733Z,-3.17
2023-02-07T17:17:32.263Z,-3.19
2023-02-07T17:19:58.730Z,-3.17
2023-02-07T17:22:25.264Z,-3.41
2023-02-07T17:24:53.691Z,-3.44
2023-02-07T17:27:20.367Z,-3.45
2023-02-07T17:29:46.919Z,-3.54
2023-02-07T17:32:13.858Z,-3.60
2023-02-07T17:34:40.422Z,-3.77
2023-02-07T17:37:09.395Z,-3.64
2023-02-07T17:39:35.883Z,-3.75
2023-02-07T17:42:02.485Z,-3.78
2023-02-07T17:44:29.893Z,-3.86
2023-02-07T17:46:56.428Z,-3.80
2023-02-07T17:49:22.963Z,-3.90
2023-02-07T17:51:49.623Z,-3.89
2023-02-07T17:54:16.235Z,-3.92
2023-02-07T17:56:42.884Z,-3.82
2023-02-07T17:59:21.033Z,-3.78
2023-02-07T18:01:47.597Z,-3.89
2023-02-07T18:04:15.101Z,-3.79
2023-02-07T18:06:41.880Z,-3.81
2023-02-07T18:09:18.371Z,-3.80
2023-02-07T18:11:45.014Z,-4.02
2023-02-07T18:14:11.659Z,-4.13
2023-02-07T18:16:38.251Z,-4.25
2023-02-07T18:19:05.076Z,-4.30
2023-02-07T18:21:35.143Z,-4.09
2023-02-07T18:24:03.567Z,-4.13
2023-02-07T18:26:30.195Z,-4.44
2023-02-07T18:28:57.175Z,-4.34
2023-02-07T18:31:25.948Z,-4.23
2023-02-07T18:33:54.047Z,-4.34
2023-02-07T18:36:23.374Z,-4.34
2023-02-07T18:38:50.292Z,-4.32
2023-02-07T18:41:21.943Z,-4.39
2023-02-07T18:43:49.417Z,-4.45
2023-02-07T18:46:18.585Z,-4.28
2023-02-07T18:48:46.292Z,-4.34
2023-02-07T18:51:15.908Z,-4.27
2023-02-07T18:53:43.293Z,-4.36
2023-02-07T18:56:15.710Z,-4.48
2023-02-07T18:58:43.135Z,-4.63
2023-02-07T19:01:11.346Z,-4.66
2023-02-07T19:03:38.566Z,-4.71
2023-02-07T19:06:06.382Z,-4.62
2023-02-07T19:08:33.004Z,-4.65
2023-02-07T19:11:04.628Z,-4.70
2023-02-07T19:13:32.934Z,-4.71
2023-02-07T19:16:05.129Z,-4.71
2023-02-07T19:18:32.064Z,-4.68
2023-02-07T19:21:09.650Z,-4.79
2023-02-07T19:23:36.711Z,-4.70
2023-02-07T19:26:04.022Z,-4.71
2023-02-07T19:28:31.329Z,-4.77
2023-02-07T19:30:58.089Z,-4.97
2023-02-07T19:33:25.012Z,-5.00
2023-02-07T19:35:51.548Z,-5.01
2023-02-07T19:38:18.128Z,-5.41
2023-02-07T19:40:45.118Z,-5.22
2023-02-07T19:43:11.614Z,-5.07
2023-02-07T19:45:38.584Z,-5.34
2023-02-07T19:48:05.287Z,-5.23
2023-02-07T19:50:32.005Z,-5.40
2023-02-07T19:52:58.463Z,-5.63
2023-02-07T19:55:24.965Z,-5.45
2023-02-07T19:57:51.435Z,-5.55
2023-02-07T20:00:18.049Z,-5.54
2023-02-07T20:02:44.522Z,-5.44
2023-02-07T20:05:11.355Z,-5.43
2023-02-07T20:07:37.940Z,-5.45
2023-02-07T20:10:05.264Z,-5.52
2023-02-07T20:12:31.769Z,-5.57
2023-02-07T20:14:58.887Z,-5.57
2023-02-07T20:17:26.103Z,-5.73
2023-02-07T20:19:52.704Z,-5.90
2023-02-07T20:22:19.232Z,-5.65
2023-02-07T20:24:45.750Z,-5.87
2023-02-07T20:27:12.315Z,-5.58
2023-02-07T20:29:38.765Z,-5.69
2023-02-07T20:32:05.365Z,-5.63
2023-02-07T20:34:31.838Z,-5.72
2023-02-07T20:36:58.463Z,-5.76
2023-02-07T20:39:26.520Z,-5.70
2023-02-07T20:41:52.986Z,-5.76
2023-02-07T20:44:21.734Z,-5.95
2023-02-07T20:46:50.645Z,-5.87
2023-02-07T20:49:24.214Z,-5.91
2023-02-07T20:51:51.905Z,-5.91
2023-02-07T20:54:21.314Z,-6.24
2023-02-07T20:56:48.116Z,-6.13
2023-02-07T20:59:20.467Z,-6.07
2023-02-07T21:01:47.612Z,-6.08
2023-02-07T21:04:14.288Z,-6.11
2023-02-07T21:06:42.703Z,-6.21
2023-02-07T21:09:09.572Z,-6.15
2023-02-07T21:11:39.464Z,-6.14
2023-02-07T21:14:10.682Z,-6.17
2023-02-07T21:16:37.503Z,-6.23
2023-02-07T21:19:04.106Z,-6.25
2023-02-07T21:21:31.179Z,-6.43
2023-02-07T21:23:58.415Z,-6.38
2023-02-07T21:26:26.650Z,-6.66
2023-02-07T21:29:00.124Z,-6.47
2023-02-07T21:31:28.952Z,-6.32
2023-02-07T21:33:55.788Z,-6.51
2023-02-07T21:36:28.274Z,-6.31
2023-02-07T21:38:56.442Z,-6.32
2023-02-07T21:41:26.535Z,-6.35
2023-02-07T21:43:57.597Z,-6.57
2023-02-07T21:46:27.631Z,-6.57
2023-02-07T21:48:58.859Z,-6.39
2023-02-07T21:51:26.196Z,-6.45
2023-02-07T21:53:54.426Z,-6.56
2023-02-07T21:56:25.058Z,-6.48
2023-02-07T21:59:03.228Z,-6.44
2023-02-07T22:01:32.677Z,-6.41
2023-02-07T22:04:01.286Z,-6.54
2023-02-07T22:06:28.644Z,-6.64
2023-02-07T22:08:58.877Z,-6.73
2023-02-07T22:11:28.068Z,-6.82
2023-02-07T22:13:54.760Z,-6.85
2023-02-07T22:16:23.631Z,-6.76
2023-02-07T22:18:53.291Z,-6.61
2023-02-07T22:21:22.275Z,-6.71
2023-02-07T22:23:48.833Z,-6.78
2023-02-07T22:26:17.607Z,-6.79
2023-02-07T22:28:45.062Z,-6.66
2023-02-07T22:31:17.048Z,-6.73
2023-02-07T22:33:43.637Z,-6.92
2023-02-07T22:36:19.443Z,-6.76
2023-02-07T22:38:46.972Z,-7.05
2023-02-07T22:41:13.439Z,-6.89
2023-02-07T22:43:40.350Z,-6.99
2023-02-07T22:46:08.580Z,-6.96
2023-02-07T22:48:35.575Z,-7.10
2023-02-07T22:51:29.804Z,-6.88
2023-02-07T22:53:59.266Z,-6.96
2023-02-07T22:56:26.795Z,-6.97
2023-02-07T22:58:54.358Z,-7.24
2023-02-07T23:18:05.515Z,-7.46
2023-02-07T23:20:32.112Z,-7.32
2023-02-07T23:22:58.607Z,-7.27
2023-02-07T23:25:25.126Z,-7.23
2023-02-07T23:27:51.710Z,-7.20
2023-02-07T23:30:18.238Z,-7.19
2023-02-07T23:32:44.758Z,-7.19
2023-02-07T23:35:11.297Z,-7.20
2023-02-07T23:37:37.828Z,-7.28
2023-02-07T23:40:04.767Z,-7.21
2023-02-07T23:42:31.384Z,-7.36
2023-02-07T23:44:57.901Z,-7.35
2023-02-07T23:47:24.484Z,-7.37
2023-02-07T23:49:50.987Z,-7.36
2023-02-07T23:52:17.545Z,-7.34
2023-02-07T23:54:44.062Z,-7.54
2023-02-07T23:57:10.556Z,-7.45
2023-02-07T23:59:37.142Z,-7.55
